Boultons Beach, New York
Current Conditions -  °F | °C
As of 3:56 AM on Friday 31 Oct 2014 (Local Time) from KART Reporting Station
Few Clouds Few Clouds  
Wind Chill: -2°   Ceiling: Unl
Heat Index:   Visibility: 10mi
Dew Point: -2°   Wind: 5mph
Humidity: 82%   Direction: 100°E
Pressure: 30.01"   Gusts: NA
Location:  43.9321°N, 76.0832°W
Report Text: KART 310756Z AUTO 10004KT 10SM FEW110 01/M02 A3001 RMK AO2 SLP165 I1000 T00061022
Loading
Personal Weather Stations






























Interactive Weather Map
Tropical Storm Tracking
New forecast layout! Learn more

10-Day Weather Forecast

Advertisements
Track Severe Weather on mobile